Terminal Aerodrome Forecast
Issued by NWS

Home | Current Version | Previous Version | Graphics & Text | Print | Product List | Glossary On
Versions: 1 2 3 4 5 6 7 8 9 10 11 12 13 14 15 16 17 18 19 20 21 22
157
FTUS43 KBIS 200303 AAC
TAFJMS
TAF AMD
KJMS 200303Z 2003/2024 33012KT P6SM -SHRA SCT025 OVC035
     FM200700 27011KT P6SM BKN100
     FM201700 24015KT P6SM FEW250=

USA.gov is the U.S. government's official web portal to all federal, state and local government web resources and services.